createdAt,value
2023-01-11T00:01:00.265Z,3.63
2023-01-11T00:02:02.494Z,3.63
2023-01-11T00:03:06.457Z,3.63
2023-01-11T00:04:08.789Z,3.63
2023-01-11T00:05:12.066Z,3.64
2023-01-11T00:06:15.113Z,3.63
2023-01-11T00:07:17.259Z,3.64
2023-01-11T00:08:22.072Z,3.64
2023-01-11T00:09:24.225Z,3.64
2023-01-11T00:10:27.267Z,3.64
2023-01-11T00:11:29.414Z,3.64
2023-01-11T00:12:32.675Z,3.65
2023-01-11T00:13:35.689Z,3.64
2023-01-11T00:14:37.683Z,3.65
2023-01-11T00:15:40.859Z,3.65
2023-01-11T00:16:44.493Z,3.65
2023-01-11T00:17:47.565Z,3.66
2023-01-11T00:18:49.589Z,3.66
2023-01-11T00:19:52.751Z,3.66
2023-01-11T00:20:54.738Z,3.66
2023-01-11T00:21:57.824Z,3.66
2023-01-11T00:22:59.861Z,3.66
2023-01-11T00:24:03.023Z,3.67
2023-01-11T00:25:05.882Z,3.66
2023-01-11T00:26:12.305Z,3.67
2023-01-11T00:27:14.420Z,3.68
2023-01-11T00:28:17.443Z,3.67
2023-01-11T00:29:19.447Z,3.67
2023-01-11T00:30:22.657Z,3.66
2023-01-11T00:31:24.799Z,3.66
2023-01-11T00:32:29.294Z,3.67
2023-01-11T00:33:31.595Z,3.65
2023-01-11T00:34:34.591Z,3.66
2023-01-11T00:35:36.638Z,3.67
2023-01-11T00:36:39.674Z,3.67
2023-01-11T00:37:41.721Z,3.66
2023-01-11T00:38:46.724Z,3.64
2023-01-11T00:39:48.824Z,3.65
2023-01-11T00:40:51.875Z,3.64
2023-01-11T00:42:12.287Z,3.64
2023-01-11T00:43:41.243Z,3.63
2023-01-11T00:45:01.781Z,3.63
2023-01-11T00:46:22.307Z,3.63
2023-01-11T00:47:42.871Z,3.63
2023-01-11T00:48:47.231Z,3.63
2023-01-11T00:49:49.306Z,3.62
2023-01-11T00:50:54.939Z,3.62
2023-01-11T00:51:56.983Z,3.62
2023-01-11T00:53:00.588Z,3.62
2023-01-11T00:54:04.551Z,3.62
2023-01-11T00:55:08.656Z,3.62
2023-01-11T00:56:10.688Z,3.61
2023-01-11T00:57:13.725Z,3.61
2023-01-11T00:58:16.221Z,3.62
2023-01-11T00:59:19.284Z,3.61
2023-01-11T01:00:22.234Z,3.61
2023-01-11T01:01:25.287Z,3.63
2023-01-11T01:02:27.419Z,3.62
2023-01-11T01:03:30.534Z,3.61
2023-01-11T01:04:34.074Z,3.62
2023-01-11T01:05:39.206Z,3.63
2023-01-11T01:06:41.304Z,3.63
2023-01-11T01:07:44.684Z,3.64
2023-01-11T01:08:46.951Z,3.65
2023-01-11T01:09:50.041Z,3.64
2023-01-11T01:10:52.339Z,3.63
2023-01-11T01:11:55.522Z,3.64
2023-01-11T01:13:16.017Z,3.64
2023-01-11T01:14:28.968Z,3.64
2023-01-11T01:15:31.588Z,3.65
2023-01-11T01:16:34.830Z,3.66
2023-01-11T01:17:37.910Z,3.65
2023-01-11T01:18:40.007Z,3.65
2023-01-11T01:19:44.625Z,3.66
2023-01-11T01:20:50.396Z,3.66
2023-01-11T01:21:53.489Z,3.66
2023-01-11T01:22:55.642Z,3.67
2023-01-11T01:23:58.683Z,3.67
2023-01-11T01:25:00.905Z,3.67
2023-01-11T01:26:04.566Z,3.67
2023-01-11T01:27:06.651Z,3.68
2023-01-11T01:28:09.717Z,3.67
2023-01-11T01:29:11.991Z,3.68
2023-01-11T01:30:15.759Z,3.67
2023-01-11T01:31:17.896Z,3.68
2023-01-11T01:32:22.342Z,3.68
2023-01-11T01:33:24.932Z,3.68
2023-01-11T01:34:28.043Z,3.68
2023-01-11T01:35:31.522Z,3.69
2023-01-11T01:36:34.752Z,3.68
2023-01-11T01:37:36.848Z,3.68
2023-01-11T01:38:39.876Z,3.70
2023-01-11T01:39:42.335Z,3.69
2023-01-11T01:40:47.309Z,3.69
2023-01-11T01:41:49.299Z,3.69
2023-01-11T01:42:55.196Z,3.69
2023-01-11T01:43:59.475Z,3.70
2023-01-11T10:33:57.484Z,5.97
2023-01-11T10:35:17.994Z,5.98
2023-01-11T10:36:41.560Z,5.98
2023-01-11T10:38:02.374Z,5.99
2023-01-11T10:39:27.157Z,6.00
2023-01-11T10:40:58.690Z,6.00
2023-01-11T10:42:10.464Z,6.02
2023-01-11T10:43:21.775Z,6.02
2023-01-11T10:44:32.774Z,6.05
2023-01-11T10:45:41.381Z,6.07
2023-01-11T10:46:48.143Z,6.08
2023-01-11T10:47:58.186Z,6.11
2023-01-11T10:49:21.348Z,6.12
2023-01-11T10:50:29.075Z,6.13
2023-01-11T10:51:38.740Z,6.15
2023-01-11T10:52:51.907Z,6.16
2023-01-11T10:55:13.205Z,6.17
2023-01-11T10:56:24.487Z,6.17
2023-01-11T10:57:59.389Z,6.18
2023-01-11T10:59:25.717Z,6.18
2023-01-11T11:00:36.603Z,6.19
2023-01-11T11:01:51.426Z,6.20
2023-01-11T11:03:23.191Z,6.21
2023-01-11T11:04:55.530Z,6.22
2023-01-11T11:06:07.501Z,6.23
2023-01-11T11:07:18.302Z,6.24
2023-01-11T11:08:28.273Z,6.26
2023-01-11T11:09:38.612Z,6.32
2023-01-11T11:10:49.603Z,6.36
2023-01-11T11:11:57.301Z,6.36
2023-01-11T11:13:09.272Z,6.37
2023-01-11T11:14:16.194Z,6.38
2023-01-11T11:15:23.652Z,6.38
2023-01-11T11:16:42.391Z,6.37
2023-01-11T11:17:50.402Z,6.38
2023-01-11T11:18:55.647Z,6.38
2023-01-11T11:20:00.480Z,6.40
2023-01-11T11:21:10.292Z,6.42
2023-01-11T11:22:14.106Z,6.40
2023-01-11T11:23:19.325Z,6.41
2023-01-11T11:24:27.802Z,6.41
2023-01-11T11:25:33.676Z,6.39
2023-01-11T11:26:41.640Z,6.42
2023-01-11T11:27:49.663Z,6.43
2023-01-11T11:29:04.398Z,6.42
2023-01-11T11:30:13.928Z,6.43
2023-01-11T11:31:16.043Z,6.44
2023-01-11T11:32:24.174Z,6.43
2023-01-11T11:33:34.766Z,6.44
2023-01-11T11:34:37.815Z,6.44
2023-01-11T11:35:45.716Z,6.44
2023-01-11T11:36:50.212Z,6.47
2023-01-11T11:37:55.772Z,6.48
2023-01-11T11:39:05.441Z,6.51
2023-01-11T11:40:29.983Z,6.55
2023-01-11T11:41:48.340Z,6.59
2023-01-11T11:42:56.403Z,6.60
2023-01-11T11:44:15.893Z,6.61
2023-01-11T11:45:18.474Z,6.62
2023-01-11T11:46:27.161Z,6.62
2023-01-11T11:47:29.220Z,6.64
2023-01-11T11:48:34.284Z,6.71
2023-01-11T11:49:38.328Z,6.72
2023-01-11T11:50:45.274Z,6.74
2023-01-11T11:51:49.471Z,6.76
2023-01-11T11:52:54.959Z,6.78
2023-01-11T11:53:58.216Z,6.77
2023-01-11T11:55:01.430Z,6.75
2023-01-11T11:56:16.002Z,6.72
2023-01-11T11:57:24.635Z,6.70
2023-01-11T11:58:27.460Z,6.69
2023-01-11T11:59:33.204Z,6.68
2023-01-11T12:00:40.613Z,6.68
2023-01-11T12:01:47.190Z,6.67
2023-01-11T12:02:53.632Z,6.69
2023-01-11T12:04:00.796Z,6.70
2023-01-11T12:05:08.451Z,6.72
2023-01-11T12:06:12.982Z,6.73
2023-01-11T12:07:19.602Z,6.74
2023-01-11T12:08:24.539Z,6.72
2023-01-11T12:09:31.385Z,6.71
2023-01-11T12:10:34.560Z,6.70
2023-01-11T12:11:42.228Z,6.69
2023-01-11T12:12:52.783Z,6.70
2023-01-11T12:14:03.353Z,6.69
2023-01-11T12:15:19.384Z,6.70
2023-01-11T12:16:24.147Z,6.69
2023-01-11T12:17:27.419Z,6.69
2023-01-11T12:18:33.513Z,6.70
2023-01-11T12:19:45.104Z,6.73
2023-01-11T18:15:33.959Z,6.69
2023-01-11T18:16:36.229Z,6.68
2023-01-11T18:17:40.646Z,6.69
2023-01-11T18:18:44.742Z,6.65
2023-01-11T18:19:47.823Z,6.65
2023-01-11T18:20:49.988Z,6.66
2023-01-11T18:21:55.597Z,6.64
2023-01-11T18:23:05.162Z,6.65
2023-01-11T18:24:45.085Z,6.65
2023-01-11T18:25:47.340Z,6.71
2023-01-11T18:27:06.444Z,6.72
2023-01-11T18:28:27.279Z,6.76
2023-01-11T18:29:49.366Z,6.77
2023-01-11T18:30:56.591Z,6.78
2023-01-11T18:31:59.849Z,6.76
2023-01-11T18:33:04.906Z,6.76
2023-01-11T18:34:07.544Z,6.77
2023-01-11T18:35:18.918Z,6.75
2023-01-11T18:36:23.139Z,6.75
2023-01-11T18:37:26.243Z,6.75
2023-01-11T18:38:30.155Z,6.75
2023-01-11T18:39:33.601Z,6.74
2023-01-11T18:40:38.226Z,6.75
2023-01-11T18:42:01.638Z,6.74
2023-01-11T18:43:04.585Z,6.72
2023-01-11T18:44:10.689Z,6.72
2023-01-11T18:45:16.067Z,6.71
2023-01-11T18:46:19.612Z,6.71
2023-01-11T18:47:23.938Z,6.70
2023-01-11T18:48:25.936Z,6.71
2023-01-11T18:49:28.927Z,6.71
2023-01-11T18:50:32.000Z,6.70
2023-01-11T18:51:39.516Z,6.70
2023-01-11T18:52:42.634Z,6.72
2023-01-11T18:53:45.627Z,6.72
2023-01-11T18:54:48.987Z,6.72
2023-01-11T18:55:52.055Z,6.72
2023-01-11T18:56:54.145Z,6.73
2023-01-11T18:57:58.437Z,6.73
2023-01-11T18:59:00.876Z,6.73
2023-01-11T19:00:05.160Z,6.77
2023-01-11T19:01:07.914Z,6.78
2023-01-11T19:02:25.583Z,6.78
2023-01-11T19:03:27.654Z,6.78
2023-01-11T19:04:31.043Z,6.80
2023-01-11T19:05:34.164Z,6.79
2023-01-11T19:06:36.169Z,6.80
2023-01-11T19:07:39.208Z,6.80
2023-01-11T19:08:41.255Z,6.79
2023-01-11T19:09:45.526Z,6.81
2023-01-11T19:10:50.504Z,6.79
2023-01-11T19:11:53.437Z,6.80
2023-01-11T19:12:58.194Z,6.80
2023-01-11T19:14:00.200Z,6.81
2023-01-11T19:15:03.309Z,6.80
2023-01-11T19:16:07.530Z,6.82
2023-01-11T19:17:11.338Z,6.82
2023-01-11T19:18:16.462Z,6.82
2023-01-11T19:19:18.395Z,6.82
2023-01-11T19:20:21.366Z,6.82
2023-01-11T19:21:23.392Z,6.82
2023-01-11T19:22:26.933Z,6.82
2023-01-11T19:23:30.522Z,6.82
2023-01-11T19:24:33.746Z,6.82
2023-01-11T19:25:36.736Z,6.82
2023-01-11T19:26:39.134Z,6.83
2023-01-11T19:27:42.217Z,6.84
2023-01-11T19:28:44.169Z,6.85
2023-01-11T19:29:47.274Z,6.85
2023-01-11T19:30:49.418Z,6.85
2023-01-11T19:31:55.579Z,6.86
2023-01-11T19:32:58.553Z,6.88
2023-01-11T19:34:02.918Z,6.87
2023-01-11T19:35:08.193Z,6.87
2023-01-11T19:36:10.949Z,6.86
2023-01-11T19:37:13.928Z,6.87
2023-01-11T19:38:18.334Z,6.87
2023-01-11T19:39:21.305Z,6.87
2023-01-11T19:40:25.612Z,6.89
2023-01-11T19:41:48.626Z,6.88
2023-01-11T19:42:53.964Z,6.88
2023-01-11T19:43:55.908Z,6.88
2023-01-11T19:45:02.565Z,6.88
2023-01-11T19:46:05.639Z,6.89
2023-01-11T19:47:12.719Z,6.89
2023-01-11T19:48:16.191Z,6.87
2023-01-11T19:49:19.564Z,6.88
2023-01-11T19:50:22.622Z,6.87
2023-01-11T19:51:24.600Z,6.87
2023-01-11T19:52:28.415Z,6.86
2023-01-11T19:53:31.014Z,6.88
2023-01-11T19:54:34.008Z,6.87
2023-01-11T19:55:35.949Z,6.88
2023-01-11T19:56:38.925Z,6.89
2023-01-11T19:57:41.972Z,6.89
2023-01-11T19:58:43.958Z,6.89
2023-01-11T19:59:47.111Z,6.89
2023-01-11T20:00:50.111Z,6.88
2023-01-11T20:01:52.217Z,6.89
2023-01-11T20:02:55.186Z,6.89
2023-01-11T20:03:58.790Z,6.89
2023-01-11T20:05:03.197Z,6.89
2023-01-11T20:06:08.200Z,6.88
2023-01-11T20:07:12.598Z,6.88
2023-01-11T20:08:15.827Z,6.88
2023-01-11T20:09:19.708Z,6.89
2023-01-11T20:10:22.763Z,6.88
2023-01-11T20:11:25.282Z,6.88
2023-01-11T20:12:28.345Z,6.88
2023-01-11T20:13:30.338Z,6.88
2023-01-11T20:14:33.909Z,6.86
2023-01-11T20:15:38.557Z,6.86
2023-01-11T20:16:41.639Z,6.85
2023-01-11T20:17:44.888Z,6.85
2023-01-11T20:18:53.085Z,6.86
2023-01-11T20:19:56.193Z,6.86
2023-01-11T20:21:00.119Z,6.85
2023-01-11T20:22:03.336Z,6.84
2023-01-11T20:23:05.334Z,6.86
2023-01-11T20:24:08.799Z,6.97
2023-01-11T20:25:12.498Z,7.77
2023-01-11T20:26:16.251Z,8.43
2023-01-11T20:27:19.381Z,8.71
2023-01-11T20:28:21.380Z,8.70
2023-01-11T20:29:24.505Z,8.61
2023-01-11T20:30:26.450Z,8.46
2023-01-11T20:31:32.960Z,8.32
2023-01-11T20:32:41.923Z,8.25
2023-01-11T20:33:44.803Z,8.10
2023-01-11T20:34:47.787Z,7.98
2023-01-11T20:35:49.868Z,7.86
2023-01-11T20:36:54.258Z,7.76
2023-01-11T20:37:57.269Z,7.65
2023-01-11T20:38:59.295Z,7.56
2023-01-11T20:40:02.338Z,7.48
2023-01-11T20:41:08.160Z,7.42
2023-01-11T20:42:12.574Z,7.37
2023-01-11T20:43:14.634Z,7.30
2023-01-11T20:44:19.362Z,7.26
2023-01-11T20:45:22.542Z,7.21
2023-01-11T20:46:24.621Z,7.18
2023-01-11T20:47:27.681Z,7.15
2023-01-11T20:48:30.276Z,7.11
2023-01-11T20:49:33.296Z,7.10
2023-01-11T20:50:36.348Z,7.08
2023-01-11T20:51:39.838Z,7.05
2023-01-11T20:52:44.768Z,7.04
2023-01-11T20:53:47.176Z,7.03
2023-01-11T20:54:50.229Z,7.01
2023-01-11T20:55:52.390Z,7.00
2023-01-11T20:56:57.815Z,6.99
2023-01-11T20:58:01.822Z,6.97
2023-01-11T20:59:04.354Z,6.97
2023-01-11T21:01:15.357Z,6.96
2023-01-11T21:02:18.350Z,6.96
2023-01-11T21:03:23.896Z,6.95
2023-01-11T21:04:29.177Z,6.94
2023-01-11T21:05:31.153Z,6.95
2023-01-11T21:06:36.464Z,6.94
2023-01-11T21:07:38.440Z,6.94
2023-01-11T21:08:42.972Z,6.93
2023-01-11T21:09:44.992Z,6.92
2023-01-11T21:10:48.027Z,6.91
2023-01-11T21:11:53.784Z,6.92
2023-01-11T21:12:57.697Z,6.91
2023-01-11T21:14:01.988Z,6.91
2023-01-11T21:15:08.702Z,6.91
2023-01-11T21:16:12.677Z,6.92
2023-01-11T21:17:15.691Z,6.91
2023-01-11T21:18:17.680Z,6.91
2023-01-11T21:19:21.086Z,6.92
2023-01-11T21:20:23.129Z,6.92
2023-01-11T21:21:27.098Z,6.90
2023-01-11T21:22:31.169Z,6.91
2023-01-11T21:23:35.799Z,6.90
2023-01-11T21:24:41.113Z,6.91
2023-01-11T21:25:43.104Z,6.91
2023-01-11T21:26:48.028Z,6.90
2023-01-11T21:27:50.240Z,6.90
2023-01-11T21:28:55.699Z,6.91
2023-01-11T21:29:58.737Z,6.90
2023-01-11T21:31:02.131Z,6.90
2023-01-11T21:32:05.528Z,6.89
2023-01-11T21:33:07.663Z,6.89
2023-01-11T21:34:11.755Z,6.89
2023-01-11T21:35:14.824Z,6.88
2023-01-11T21:36:18.159Z,6.89
2023-01-11T21:37:24.616Z,6.88
2023-01-11T21:38:26.648Z,6.89
2023-01-11T21:39:29.660Z,6.88
2023-01-11T21:40:34.170Z,6.88
2023-01-11T21:41:54.464Z,6.88
2023-01-11T21:42:57.597Z,6.88
2023-01-11T21:43:59.709Z,6.87
2023-01-11T21:45:02.815Z,6.85
2023-01-11T21:46:07.531Z,6.86
2023-01-11T21:47:11.489Z,6.85
2023-01-11T21:48:13.535Z,6.86
2023-01-11T21:49:17.684Z,6.86
2023-01-11T21:50:19.769Z,6.86
2023-01-11T21:51:22.780Z,6.87
2023-01-11T21:52:25.815Z,6.87
2023-01-11T21:53:30.405Z,6.87
2023-01-11T21:54:33.421Z,6.87
2023-01-11T21:55:36.789Z,6.87
2023-01-11T21:56:41.727Z,6.87
2023-01-11T21:57:44.709Z,6.88
2023-01-11T21:58:46.936Z,6.88
2023-01-11T21:59:49.901Z,6.87
2023-01-11T22:00:52.236Z,6.88
2023-01-11T22:01:55.307Z,6.87
2023-01-11T22:02:57.323Z,6.87
2023-01-11T22:04:00.582Z,6.87
2023-01-11T22:05:02.591Z,6.88
2023-01-11T22:06:06.506Z,6.88
2023-01-11T22:07:09.571Z,6.88
2023-01-11T22:08:11.745Z,6.88
2023-01-11T22:09:14.697Z,6.88
2023-01-11T22:10:17.841Z,6.88
2023-01-11T22:11:21.168Z,6.88
2023-01-11T22:12:24.151Z,6.87
2023-01-11T22:13:26.468Z,6.88
2023-01-11T22:14:30.514Z,6.87
2023-01-11T22:15:32.563Z,6.88
2023-01-11T22:16:36.268Z,6.88
2023-01-11T22:17:38.355Z,6.87
2023-01-11T22:18:41.733Z,6.87
2023-01-11T22:19:44.732Z,6.87
2023-01-11T22:20:47.064Z,6.86
2023-01-11T22:21:49.977Z,6.86
2023-01-11T22:22:51.970Z,6.86
2023-01-11T22:23:56.127Z,6.85
2023-01-11T22:24:58.173Z,6.85
2023-01-11T22:26:04.420Z,6.85
2023-01-11T22:27:08.775Z,6.84
2023-01-11T22:28:10.822Z,6.85
2023-01-11T22:29:15.140Z,6.84
2023-01-11T22:30:18.640Z,6.85
2023-01-11T22:31:20.897Z,6.84
2023-01-11T22:32:24.064Z,6.85
2023-01-11T22:33:26.074Z,6.84
2023-01-11T22:34:29.405Z,6.84
2023-01-11T22:35:31.415Z,6.83
2023-01-11T22:36:34.558Z,6.83
2023-01-11T22:37:37.643Z,6.83
2023-01-11T22:38:39.611Z,6.84
2023-01-11T22:39:42.551Z,6.84
2023-01-11T22:40:44.576Z,6.84
2023-01-11T22:41:48.684Z,6.83
2023-01-11T22:42:55.969Z,6.83
2023-01-11T22:43:58.119Z,6.81
2023-01-11T22:45:01.133Z,6.81
2023-01-11T22:46:03.165Z,6.79
2023-01-11T22:47:06.398Z,6.79
2023-01-11T22:48:08.364Z,6.78
2023-01-11T22:49:11.645Z,6.79
2023-01-11T22:50:13.745Z,6.79
2023-01-11T22:51:18.132Z,6.78
2023-01-11T22:52:22.466Z,6.78
2023-01-11T22:53:24.497Z,6.78
2023-01-11T22:54:27.493Z,6.76
2023-01-11T22:55:29.507Z,6.78
2023-01-11T22:56:33.406Z,6.78
2023-01-11T22:57:36.390Z,6.78
2023-01-11T22:58:39.836Z,6.79
2023-01-11T22:59:42.859Z,6.80
2023-01-11T23:00:44.807Z,6.80
2023-01-11T23:01:47.831Z,6.78
2023-01-11T23:02:49.803Z,6.78
2023-01-11T23:03:53.534Z,6.77
2023-01-11T23:04:56.585Z,6.76
2023-01-11T23:05:58.537Z,6.76
2023-01-11T23:07:01.502Z,6.76
2023-01-11T23:08:03.679Z,6.75
2023-01-11T23:09:07.650Z,6.76
2023-01-11T23:10:13.643Z,6.74
2023-01-11T23:11:39.792Z,6.73
2023-01-11T23:13:00.322Z,6.73
2023-01-11T23:14:05.716Z,6.72
2023-01-11T23:15:09.699Z,6.70
2023-01-11T23:16:13.139Z,6.71
2023-01-11T23:17:19.360Z,6.70
2023-01-11T23:18:21.813Z,6.70
2023-01-11T23:19:25.002Z,6.69
2023-01-11T23:20:26.937Z,6.69
2023-01-11T23:21:30.226Z,6.69
2023-01-11T23:22:33.225Z,6.69
2023-01-11T23:23:35.314Z,6.70
2023-01-11T23:24:39.048Z,6.68
2023-01-11T23:25:41.154Z,6.68
2023-01-11T23:26:45.100Z,6.70
2023-01-11T23:27:47.180Z,6.69
2023-01-11T23:28:51.547Z,6.69
2023-01-11T23:29:54.857Z,6.69
2023-01-11T23:30:57.837Z,6.70
2023-01-11T23:32:01.029Z,6.70
2023-01-11T23:33:03.042Z,6.71
2023-01-11T23:34:08.523Z,6.70
2023-01-11T23:35:10.719Z,6.71
2023-01-11T23:36:14.457Z,6.72
2023-01-11T23:37:17.553Z,6.72
2023-01-11T23:38:19.452Z,6.72
2023-01-11T23:39:23.701Z,6.71
2023-01-11T23:40:25.755Z,6.70
2023-01-11T23:41:48.454Z,6.71
2023-01-11T23:42:51.373Z,6.70
2023-01-11T23:43:53.458Z,6.69
2023-01-11T23:44:58.707Z,6.69
2023-01-11T23:46:23.372Z,6.68
2023-01-11T23:47:29.450Z,6.68
2023-01-11T23:48:31.768Z,6.69
2023-01-11T23:49:34.706Z,6.68
2023-01-11T23:50:37.667Z,6.68
2023-01-11T23:51:39.683Z,6.69
2023-01-11T23:52:42.621Z,6.67
2023-01-11T23:53:44.839Z,6.64
2023-01-11T23:54:48.103Z,6.62
2023-01-11T23:55:54.598Z,6.61
2023-01-11T23:56:58.232Z,6.59
2023-01-11T23:58:09.191Z,6.55
2023-01-11T23:59:12.652Z,6.50
